Terminal Aerodrome Forecast
Issued by NWS

Home | Current Version | Previous Version | Text Only | Print | Product List | Glossary On
Versions: 1 2 3 4 5 6 7 8 9 10 11 12 13 14 15 16 17 18 19 20 21 22 23 24 25 26 27 28 29 30
567
FTUS41 KCAR 131130
TAFPQI
TAF
KPQI 131130Z 1312/1412 15005KT P6SM VCSH BKN050 WS020/21035KT
     FM140200 17008KT P6SM BKN030 WS020/20035KT
     FM140300 17007KT P6SM VCSH BKN016 WS020/20035KT
     FM140700 16008KT 2SM -SN OVC008
     FM141000 14007KT 1SM -SNRA OVC007=

USA.gov is the U.S. government's official web portal to all federal, state and local government web resources and services.